Time,TemperatureF,DewpointF,PressureIn,WindDirection,WindDirectionDegrees,WindSpeedMPH,WindSpeedGustMPH,Humidity,HourlyPrecipIn,Conditions,Clouds,dailyrainin,SoftwareType,DateUTC
2013-02-23 00:01:00,38.0,28.4,30.11,NE,47,0.0,2.0,68,0.00,,FEW250,0.00,VWS V14.01,2013-02-23 06:01:00,
2013-02-23 00:06:00,37.8,28.2,30.10,NNE,27,0.0,0.0,68,0.00,,FEW250,0.00,VWS V14.01,2013-02-23 06:06:00,
2013-02-23 00:11:00,37.6,28.0,30.10,NNE,19,0.0,1.0,68,0.00,,FEW250,0.00,VWS V14.01,2013-02-23 06:11:00,
2013-02-23 00:16:00,37.3,27.7,30.09,NNW,329,0.0,0.0,68,0.00,,FEW250,0.00,VWS V14.01,2013-02-23 06:16:00,
2013-02-23 00:21:00,37.2,27.6,30.10,NNE,22,0.0,1.0,68,0.00,,FEW250,0.00,VWS V14.01,2013-02-23 06:21:00,
2013-02-23 00:26:00,37.1,27.5,30.10,NNW,338,1.0,2.0,68,0.00,,FEW250,0.00,VWS V14.01,2013-02-23 06:26:00,
2013-02-23 00:31:00,36.9,27.3,30.10,NNW,342,2.0,2.0,68,0.00,,FEW250,0.00,VWS V14.01,2013-02-23 06:31:00,
2013-02-23 00:36:00,36.8,27.6,30.10,North,350,0.0,0.0,69,0.00,,FEW250,0.00,VWS V14.01,2013-02-23 06:36:00,
2013-02-23 00:41:00,36.7,27.5,30.10,NNE,12,3.0,3.0,69,0.00,,FEW250,0.00,VWS V14.01,2013-02-23 06:41:00,
2013-02-23 00:46:00,36.6,27.4,30.10,NNW,340,0.0,1.0,69,0.00,,FEW250,0.00,VWS V14.01,2013-02-23 06:46:00,
2013-02-23 00:51:00,36.5,27.3,30.10,NNE,13,2.0,2.0,69,0.00,,FEW250,0.00,VWS V14.01,2013-02-23 06:51:00,
2013-02-23 00:56:00,36.4,27.2,30.09,NNE,22,2.0,2.0,69,0.00,,FEW250,0.00,VWS V14.01,2013-02-23 06:56:00,
2013-02-23 01:01:00,36.4,27.2,30.09,NNW,338,0.0,1.0,69,0.00,,FEW250,0.00,VWS V14.01,2013-02-23 07:01:00,
2013-02-23 01:06:00,36.3,27.1,30.08,NNE,31,2.0,2.0,69,0.00,,FEW250,0.00,VWS V14.01,2013-02-23 07:06:00,
2013-02-23 01:11:00,36.2,27.0,30.09,NNE,18,1.0,1.0,69,0.00,,FEW250,0.00,VWS V14.01,2013-02-23 07:11:00,
2013-02-23 01:16:00,36.1,26.9,30.09,NNW,340,1.0,1.0,69,0.00,,FEW250,0.00,VWS V14.01,2013-02-23 07:16:00,
2013-02-23 01:21:00,36.1,26.9,30.09,NNW,340,1.0,1.0,69,0.00,,FEW250,0.00,VWS V14.01,2013-02-23 07:21:00,
2013-02-23 01:26:00,35.8,27.0,30.08,NNW,347,1.0,1.0,70,0.00,,FEW250,0.00,VWS V14.01,2013-02-23 07:26:00,
2013-02-23 01:31:00,35.7,26.9,30.09,NW,318,0.0,1.0,70,0.00,,FEW250,0.00,VWS V14.01,2013-02-23 07:31:00,
2013-02-23 01:36:00,35.7,26.9,30.08,NE,42,0.0,0.0,70,0.00,,FEW250,0.00,VWS V14.01,2013-02-23 07:36:00,
2013-02-23 01:41:00,35.6,26.8,30.09,NNE,19,0.0,1.0,70,0.00,,FEW250,0.00,VWS V14.01,2013-02-23 07:41:00,
2013-02-23 01:46:00,35.4,27.0,30.09,NNW,333,1.0,2.0,71,0.00,,FEW250,0.00,VWS V14.01,2013-02-23 07:46:00,
2013-02-23 01:51:00,35.2,26.8,30.09,NNE,12,1.0,2.0,71,0.00,,FEW250,0.00,VWS V14.01,2013-02-23 07:51:00,
2013-02-23 01:56:00,34.9,26.5,30.08,NNW,347,0.0,0.0,71,0.00,,FEW250,0.00,VWS V14.01,2013-02-23 07:56:00,
2013-02-23 02:01:00,34.8,26.7,30.08,NNE,12,0.0,1.0,72,0.00,,FEW250,0.00,VWS V14.01,2013-02-23 08:01:00,
2013-02-23 02:06:00,34.6,26.5,30.08,NNE,12,0.0,0.0,72,0.00,,FEW250,0.00,VWS V14.01,2013-02-23 08:06:00,
2013-02-23 02:11:00,34.5,26.4,30.08,NNW,332,1.0,1.0,72,0.00,,FEW250,0.00,VWS V14.01,2013-02-23 08:11:00,
2013-02-23 02:16:00,34.5,26.4,30.08,NNW,347,0.0,0.0,72,0.00,,FEW250,0.00,VWS V14.01,2013-02-23 08:16:00,
2013-02-23 02:21:00,34.4,26.7,30.07,NE,35,0.0,0.0,73,0.00,,FEW250,0.00,VWS V14.01,2013-02-23 08:21:00,
2013-02-23 02:26:00,34.2,26.5,30.07,NE,36,0.0,0.0,73,0.00,,FEW250,0.00,VWS V14.01,2013-02-23 08:26:00,
2013-02-23 02:31:00,34.2,26.5,30.07,NNW,333,0.0,0.0,73,0.00,,FEW250,0.00,VWS V14.01,2013-02-23 08:31:00,
2013-02-23 02:36:00,34.0,26.6,30.06,NNW,333,0.0,0.0,74,0.00,,FEW250,0.00,VWS V14.01,2013-02-23 08:36:00,
2013-02-23 02:41:00,33.9,26.5,30.06,NNW,330,0.0,0.0,74,0.00,,FEW250,0.00,VWS V14.01,2013-02-23 08:41:00,
2013-02-23 02:46:00,34.0,26.6,30.06,NNE,16,1.0,1.0,74,0.00,,FEW250,0.00,VWS V14.01,2013-02-23 08:46:00,
2013-02-23 02:51:00,34.0,26.6,30.07,NNW,330,0.0,0.0,74,0.00,,FEW250,0.00,VWS V14.01,2013-02-23 08:51:00,
2013-02-23 02:56:00,33.8,26.4,30.07,NW,326,0.0,1.0,74,0.00,,FEW250,0.00,VWS V14.01,2013-02-23 08:56:00,
2013-02-23 03:01:00,33.7,26.3,30.07,North,360,0.0,1.0,74,0.00,,FEW250,0.00,VWS V14.01,2013-02-23 09:01:00,
2013-02-23 03:06:00,33.8,26.4,30.06,NNW,327,1.0,1.0,74,0.00,,FEW250,0.00,VWS V14.01,2013-02-23 09:06:00,
2013-02-23 03:11:00,33.8,26.4,30.06,NNW,327,0.0,1.0,74,0.00,,FEW250,0.00,VWS V14.01,2013-02-23 09:11:00,
2013-02-23 03:16:00,33.9,26.2,30.06,NNW,333,1.0,1.0,73,0.00,,FEW250,0.00,VWS V14.01,2013-02-23 09:16:00,
2013-02-23 03:21:00,34.0,26.3,30.05,NE,36,1.0,1.0,73,0.00,,FEW250,0.00,VWS V14.01,2013-02-23 09:21:00,
2013-02-23 03:26:00,34.1,26.4,30.05,NNE,15,2.0,2.0,73,0.00,,FEW250,0.00,VWS V14.01,2013-02-23 09:26:00,
2013-02-23 03:31:00,34.1,26.4,30.05,North,351,1.0,1.0,73,0.00,,FEW250,0.00,VWS V14.01,2013-02-23 09:31:00,
2013-02-23 03:36:00,34.0,26.6,30.05,North,5,0.0,1.0,74,0.00,,FEW250,0.00,VWS V14.01,2013-02-23 09:36:00,
2013-02-23 03:41:00,33.9,26.5,30.04,North,11,2.0,2.0,74,0.00,,FEW250,0.00,VWS V14.01,2013-02-23 09:41:00,
2013-02-23 03:46:00,33.7,26.3,30.04,North,11,1.0,1.0,74,0.00,,FEW250,0.00,VWS V14.01,2013-02-23 09:46:00,
2013-02-23 03:51:00,33.5,26.1,30.04,NW,324,1.0,1.0,74,0.00,,FEW250,0.00,VWS V14.01,2013-02-23 09:51:00,
2013-02-23 03:56:00,33.3,26.2,30.04,North,11,0.0,0.0,75,0.00,,FEW250,0.00,VWS V14.01,2013-02-23 09:56:00,
2013-02-23 04:01:00,33.2,26.1,30.04,NNE,12,0.0,1.0,75,0.00,,SCT250,0.00,VWS V14.01,2013-02-23 10:01:00,
2013-02-23 04:06:00,33.0,26.0,30.04,NNE,12,1.0,1.0,75,0.00,,SCT250,0.00,VWS V14.01,2013-02-23 10:06:00,
2013-02-23 04:11:00,32.9,25.9,30.04,NNW,343,0.0,1.0,75,0.00,,SCT250,0.00,VWS V14.01,2013-02-23 10:11:00,
2013-02-23 04:16:00,32.9,25.9,30.04,North,350,0.0,2.0,75,0.00,,SCT250,0.00,VWS V14.01,2013-02-23 10:16:00,
2013-02-23 04:21:00,32.9,25.9,30.04,North,11,0.0,0.0,75,0.00,,SCT250,0.00,VWS V14.01,2013-02-23 10:21:00,
2013-02-23 04:26:00,32.9,25.5,30.04,NW,306,0.0,0.0,74,0.00,,SCT250,0.00,VWS V14.01,2013-02-23 10:26:00,
2013-02-23 04:31:00,32.9,25.5,30.04,NNW,340,3.0,3.0,74,0.00,,SCT250,0.00,VWS V14.01,2013-02-23 10:31:00,
2013-02-23 04:36:00,32.9,25.5,30.05,North,11,1.0,2.0,74,0.00,,SCT250,0.00,VWS V14.01,2013-02-23 10:36:00,
2013-02-23 04:41:00,32.9,25.5,30.05,NW,325,1.0,1.0,74,0.00,,SCT250,0.00,VWS V14.01,2013-02-23 10:41:00,
2013-02-23 04:46:00,32.8,26.1,30.05,NNE,22,0.0,0.0,76,0.00,,SCT250,0.00,VWS V14.01,2013-02-23 10:46:00,
2013-02-23 04:51:00,32.5,25.8,30.05,North,5,0.0,1.0,76,0.00,,SCT250,0.00,VWS V14.01,2013-02-23 10:51:00,
2013-02-23 04:56:00,32.5,25.8,30.05,NW,317,1.0,2.0,76,0.00,,SCT250,0.00,VWS V14.01,2013-02-23 10:56:00,
2013-02-23 05:01:00,32.4,25.7,30.05,WNW,300,2.0,2.0,76,0.00,,FEW250,0.00,VWS V14.01,2013-02-23 11:01:00,
2013-02-23 05:06:00,32.5,25.8,30.05,NE,39,2.0,2.0,76,0.00,,FEW250,0.00,VWS V14.01,2013-02-23 11:06:00,
2013-02-23 05:11:00,32.5,25.8,30.05,NNW,335,1.0,3.0,76,0.00,,FEW250,0.00,VWS V14.01,2013-02-23 11:11:00,
2013-02-23 05:16:00,32.5,25.8,30.05,NNE,12,0.0,1.0,76,0.00,,FEW250,0.00,VWS V14.01,2013-02-23 11:16:00,
2013-02-23 05:21:00,32.5,25.8,30.05,NNW,346,2.0,3.0,76,0.00,,FEW250,0.00,VWS V14.01,2013-02-23 11:21:00,
2013-02-23 05:26:00,32.4,25.7,30.05,NNW,327,1.0,1.0,76,0.00,,FEW250,0.00,VWS V14.01,2013-02-23 11:26:00,
2013-02-23 05:31:00,32.3,25.6,30.05,NNW,342,0.0,1.0,76,0.00,,FEW250,0.00,VWS V14.01,2013-02-23 11:31:00,
2013-02-23 05:36:00,32.1,25.7,30.05,NNE,15,2.0,2.0,77,0.00,,FEW250,0.00,VWS V14.01,2013-02-23 11:36:00,
2013-02-23 05:41:00,32.0,25.6,30.06,NNW,348,1.0,1.0,77,0.00,,FEW250,0.00,VWS V14.01,2013-02-23 11:41:00,
2013-02-23 05:46:00,31.8,25.4,30.06,NNE,22,1.0,1.0,77,0.00,,FEW250,0.00,VWS V14.01,2013-02-23 11:46:00,
2013-02-23 05:51:00,31.7,25.3,30.06,North,5,1.0,1.0,77,0.00,,FEW250,0.00,VWS V14.01,2013-02-23 11:51:00,
2013-02-23 05:56:00,31.7,25.3,30.07,NNW,346,1.0,1.0,77,0.00,,FEW250,0.00,VWS V14.01,2013-02-23 11:56:00,
2013-02-23 06:01:00,31.7,25.3,30.07,NE,42,0.0,0.0,77,0.00,,FEW250,0.00,VWS V14.01,2013-02-23 12:01:00,
2013-02-23 06:06:00,31.6,25.2,30.07,NNE,16,1.0,2.0,77,0.00,,FEW250,0.00,VWS V14.01,2013-02-23 12:06:00,
2013-02-23 06:11:00,31.6,25.5,30.07,NNW,348,1.0,1.0,78,0.00,,FEW250,0.00,VWS V14.01,2013-02-23 12:11:00,
2013-02-23 06:16:00,31.4,25.4,30.07,NNW,331,0.0,0.0,78,0.00,,FEW250,0.00,VWS V14.01,2013-02-23 12:16:00,
2013-02-23 06:21:00,31.3,25.2,30.07,NNW,333,0.0,1.0,78,0.00,,FEW250,0.00,VWS V14.01,2013-02-23 12:21:00,
2013-02-23 06:26:00,31.1,25.4,30.07,NNW,337,0.0,0.0,79,0.00,,FEW250,0.00,VWS V14.01,2013-02-23 12:26:00,
2013-02-23 06:31:00,30.9,25.2,30.07,NNW,337,0.0,0.0,79,0.00,,FEW250,0.00,VWS V14.01,2013-02-23 12:31:00,
2013-02-23 06:36:00,30.6,24.9,30.07,NNW,337,0.0,0.0,79,0.00,,FEW250,0.00,VWS V14.01,2013-02-23 12:36:00,
2013-02-23 06:41:00,30.1,24.7,30.08,NNW,336,0.0,0.0,80,0.00,,FEW250,0.00,VWS V14.01,2013-02-23 12:41:00,
2013-02-23 06:46:00,29.8,24.7,30.08,NNW,337,0.0,0.0,81,0.00,,FEW250,0.00,VWS V14.01,2013-02-23 12:46:00,
2013-02-23 06:51:00,29.5,24.4,30.08,NNW,336,0.0,0.0,81,0.00,,FEW250,0.00,VWS V14.01,2013-02-23 12:51:00,
2013-02-23 06:56:00,29.3,24.5,30.08,NNW,337,0.0,0.0,82,0.00,,FEW250,0.00,VWS V14.01,2013-02-23 12:56:00,
2013-02-23 07:01:00,28.9,24.1,30.07,NNW,337,0.0,0.0,82,0.00,,FEW250,0.00,VWS V14.01,2013-02-23 13:01:00,
2013-02-23 07:06:00,28.7,24.2,30.07,NNW,337,0.0,0.0,83,0.00,,FEW250,0.00,VWS V14.01,2013-02-23 13:06:00,
2013-02-23 07:11:00,28.7,24.5,30.07,NNW,337,0.0,0.0,84,0.00,,FEW250,0.00,VWS V14.01,2013-02-23 13:11:00,
2013-02-23 07:16:00,28.8,24.6,30.08,NNW,337,0.0,0.0,84,0.00,,FEW250,0.00,VWS V14.01,2013-02-23 13:16:00,
2013-02-23 07:21:00,28.9,24.7,30.08,NNW,340,0.0,0.0,84,0.00,,FEW250,0.00,VWS V14.01,2013-02-23 13:21:00,
2013-02-23 07:26:00,29.2,24.7,30.08,NNW,340,0.0,0.0,83,0.00,,FEW250,0.00,VWS V14.01,2013-02-23 13:26:00,
2013-02-23 07:31:00,29.3,24.8,30.08,NNW,339,0.0,0.0,83,0.00,,FEW250,0.00,VWS V14.01,2013-02-23 13:31:00,
2013-02-23 07:36:00,29.7,24.9,30.08,NNW,339,0.0,0.0,82,0.00,,FEW250,0.00,VWS V14.01,2013-02-23 13:36:00,
2013-02-23 07:41:00,30.2,25.1,30.08,NNW,340,0.0,1.0,81,0.00,,FEW250,0.00,VWS V14.01,2013-02-23 13:41:00,
2013-02-23 07:46:00,30.7,25.3,30.08,NNE,20,0.0,1.0,80,0.00,,FEW250,0.00,VWS V14.01,2013-02-23 13:46:00,
2013-02-23 07:51:00,31.3,25.6,30.09,North,11,0.0,1.0,79,0.00,,FEW250,0.00,VWS V14.01,2013-02-23 13:51:00,
2013-02-23 07:56:00,31.8,25.7,30.09,North,5,0.0,1.0,78,0.00,,FEW250,0.00,VWS V14.01,2013-02-23 13:56:00,
2013-02-23 08:01:00,32.3,25.9,30.09,NNE,30,0.0,1.0,77,0.00,,FEW250,0.00,VWS V14.01,2013-02-23 14:01:00,
2013-02-23 08:06:00,32.8,26.1,30.09,NW,320,0.0,0.0,76,0.00,,FEW250,0.00,VWS V14.01,2013-02-23 14:06:00,
2013-02-23 08:11:00,33.4,26.0,30.09,NNW,337,2.0,2.0,74,0.00,,FEW250,0.00,VWS V14.01,2013-02-23 14:11:00,
2013-02-23 08:16:00,33.8,25.7,30.09,NNE,27,0.0,0.0,72,0.00,,FEW250,0.00,VWS V14.01,2013-02-23 14:16:00,
2013-02-23 08:21:00,34.3,25.5,30.10,NE,42,1.0,1.0,70,0.00,,FEW250,0.00,VWS V14.01,2013-02-23 14:21:00,
2013-02-23 08:26:00,34.6,25.1,30.10,NE,55,0.0,0.0,68,0.00,,FEW250,0.00,VWS V14.01,2013-02-23 14:26:00,
2013-02-23 08:31:00,35.0,25.2,30.11,NE,43,1.0,2.0,67,0.00,,FEW250,0.00,VWS V14.01,2013-02-23 14:31:00,
2013-02-23 08:36:00,35.3,25.8,30.11,NE,40,0.0,0.0,68,0.00,,FEW250,0.00,VWS V14.01,2013-02-23 14:36:00,
2013-02-23 08:41:00,36.0,26.1,30.11,ENE,63,0.0,1.0,67,0.00,,FEW250,0.00,VWS V14.01,2013-02-23 14:41:00,
2013-02-23 08:46:00,36.4,25.8,30.12,NNW,327,0.0,0.0,65,0.00,,FEW250,0.00,VWS V14.01,2013-02-23 14:46:00,
2013-02-23 08:51:00,36.4,25.8,30.12,NNW,329,1.0,1.0,65,0.00,,FEW250,0.00,VWS V14.01,2013-02-23 14:51:00,
2013-02-23 08:56:00,36.5,25.9,30.12,NE,35,1.0,2.0,65,0.00,,FEW250,0.00,VWS V14.01,2013-02-23 14:56:00,
2013-02-23 09:01:00,36.8,26.1,30.11,NNW,346,1.0,2.0,65,0.00,,SCT110,0.00,VWS V14.01,2013-02-23 15:01:00,
2013-02-23 09:06:00,37.5,26.8,30.11,NW,321,3.0,3.0,65,0.00,,SCT110,0.00,VWS V14.01,2013-02-23 15:06:00,
2013-02-23 09:12:00,37.6,26.2,30.10,NE,42,1.0,1.0,63,0.00,,SCT110,0.00,VWS V14.01,2013-02-23 15:12:00,
2013-02-23 09:17:00,37.5,26.1,30.10,ENE,61,1.0,4.0,63,0.00,,SCT110,0.00,VWS V14.01,2013-02-23 15:17:00,
2013-02-23 09:22:00,37.6,26.5,30.11,NNE,22,0.0,1.0,64,0.00,,SCT110,0.00,VWS V14.01,2013-02-23 15:22:00,
2013-02-23 09:27:00,38.6,27.9,30.11,WSW,252,0.0,1.0,65,0.00,,SCT110,0.00,VWS V14.01,2013-02-23 15:27:00,
2013-02-23 09:32:00,39.4,27.5,30.11,NW,310,1.0,3.0,62,0.00,,SCT110,0.00,VWS V14.01,2013-02-23 15:32:00,
2013-02-23 09:37:00,39.5,26.8,30.11,NNW,339,2.0,4.0,60,0.00,,SCT110,0.00,VWS V14.01,2013-02-23 15:37:00,
2013-02-23 09:42:00,39.9,27.6,30.11,NW,310,0.0,3.0,61,0.00,,SCT110,0.00,VWS V14.01,2013-02-23 15:42:00,
2013-02-23 09:47:00,40.2,27.8,30.12,NNW,348,2.0,2.0,61,0.00,,SCT110,0.00,VWS V14.01,2013-02-23 15:47:00,
2013-02-23 09:52:00,40.5,26.9,30.12,NNW,328,2.0,5.0,58,0.00,,SCT110,0.00,VWS V14.01,2013-02-23 15:52:00,
2013-02-23 09:57:00,39.7,26.6,30.12,ENE,69,1.0,4.0,59,0.00,,SCT110,0.00,VWS V14.01,2013-02-23 15:57:00,
2013-02-23 10:02:00,39.5,26.8,30.12,NNE,32,4.0,4.0,60,0.00,,FEW110,0.00,VWS V14.01,2013-02-23 16:02:00,
2013-02-23 10:07:00,39.2,26.5,30.12,NNE,31,1.0,3.0,60,0.00,,FEW110,0.00,VWS V14.01,2013-02-23 16:07:00,
2013-02-23 10:12:00,39.5,27.6,30.12,NE,43,3.0,6.0,62,0.00,,FEW110,0.00,VWS V14.01,2013-02-23 16:12:00,
2013-02-23 10:17:00,40.4,28.4,30.12,NNW,346,2.0,5.0,62,0.00,,FEW110,0.00,VWS V14.01,2013-02-23 16:17:00,
2013-02-23 10:22:00,40.9,28.1,30.12,NNW,339,1.0,4.0,60,0.00,,FEW110,0.00,VWS V14.01,2013-02-23 16:22:00,
2013-02-23 10:27:00,41.2,27.6,30.12,WNW,303,2.0,3.0,58,0.00,,FEW110,0.00,VWS V14.01,2013-02-23 16:27:00,
2013-02-23 10:32:00,42.0,28.7,30.12,North,5,3.0,5.0,59,0.00,,FEW110,0.00,VWS V14.01,2013-02-23 16:32:00,
2013-02-23 10:37:00,42.7,28.5,30.12,NNE,26,2.0,3.0,57,0.00,,FEW110,0.00,VWS V14.01,2013-02-23 16:37:00,
2013-02-23 10:42:00,42.9,27.9,30.11,East,86,1.0,4.0,55,0.00,,FEW110,0.00,VWS V14.01,2013-02-23 16:42:00,
2013-02-23 10:47:00,43.5,27.1,30.12,NE,42,1.0,4.0,52,0.00,,FEW110,0.00,VWS V14.01,2013-02-23 16:47:00,
2013-02-23 10:52:00,43.4,27.4,30.12,NNW,346,3.0,6.0,53,0.00,,FEW110,0.00,VWS V14.01,2013-02-23 16:52:00,
2013-02-23 10:57:00,43.2,25.8,30.12,NNE,20,2.0,4.0,50,0.00,,FEW110,0.00,VWS V14.01,2013-02-23 16:57:00,
2013-02-23 11:02:00,43.2,27.2,30.11,NNE,15,6.0,6.0,53,0.00,,BKN120,0.00,VWS V14.01,2013-02-23 17:02:00,
2013-02-23 11:07:00,43.5,27.5,30.12,NNW,333,1.0,3.0,53,0.00,,BKN120,0.00,VWS V14.01,2013-02-23 17:07:00,
2013-02-23 11:12:00,43.3,26.9,30.11,ENE,65,4.0,6.0,52,0.00,,BKN120,0.00,VWS V14.01,2013-02-23 17:12:00,
2013-02-23 11:17:00,42.8,26.4,30.10,NE,36,1.0,4.0,52,0.00,,BKN120,0.00,VWS V14.01,2013-02-23 17:17:00,
2013-02-23 11:22:00,42.9,27.0,30.11,ENE,62,4.0,4.0,53,0.00,,BKN120,0.00,VWS V14.01,2013-02-23 17:22:00,
2013-02-23 11:27:00,43.3,27.3,30.11,NNE,28,3.0,3.0,53,0.00,,BKN120,0.00,VWS V14.01,2013-02-23 17:27:00,
2013-02-23 11:32:00,44.1,26.7,30.11,NNW,336,2.0,4.0,50,0.00,,BKN120,0.00,VWS V14.01,2013-02-23 17:32:00,
2013-02-23 11:37:00,44.0,27.0,30.10,NW,321,4.0,5.0,51,0.00,,BKN120,0.00,VWS V14.01,2013-02-23 17:37:00,
2013-02-23 11:42:00,44.1,27.6,30.10,NW,317,1.0,5.0,52,0.00,,BKN120,0.00,VWS V14.01,2013-02-23 17:42:00,
2013-02-23 11:47:00,44.4,26.9,30.10,NNE,32,3.0,5.0,50,0.00,,BKN120,0.00,VWS V14.01,2013-02-23 17:47:00,
2013-02-23 11:52:00,44.5,27.0,30.10,NNE,29,4.0,6.0,50,0.00,,BKN120,0.00,VWS V14.01,2013-02-23 17:52:00,
2013-02-23 11:57:00,44.8,27.3,30.10,NE,35,1.0,7.0,50,0.00,,BKN120,0.00,VWS V14.01,2013-02-23 17:57:00,
2013-02-23 12:02:00,45.6,28.0,30.10,North,355,2.0,4.0,50,0.00,,SCT110,0.00,VWS V14.01,2013-02-23 18:02:00,
2013-02-23 12:07:00,46.4,28.3,30.09,ENE,61,3.0,3.0,49,0.00,,SCT110,0.00,VWS V14.01,2013-02-23 18:07:00,
2013-02-23 12:12:00,46.6,29.0,30.09,NW,321,3.0,5.0,50,0.00,,SCT110,0.00,VWS V14.01,2013-02-23 18:12:00,
2013-02-23 12:17:00,46.7,28.6,30.09,NNW,344,4.0,5.0,49,0.00,,SCT110,0.00,VWS V14.01,2013-02-23 18:17:00,
2013-02-23 12:22:00,46.6,28.0,30.09,NE,34,2.0,7.0,48,0.00,,SCT110,0.00,VWS V14.01,2013-02-23 18:22:00,
2013-02-23 12:27:00,46.9,28.2,30.08,NNE,31,2.0,5.0,48,0.00,,SCT110,0.00,VWS V14.01,2013-02-23 18:27:00,
2013-02-23 12:32:00,47.0,28.9,30.08,North,11,5.0,7.0,49,0.00,,SCT110,0.00,VWS V14.01,2013-02-23 18:32:00,
2013-02-23 12:37:00,47.2,28.5,30.08,NNW,348,1.0,4.0,48,0.00,,SCT110,0.00,VWS V14.01,2013-02-23 18:37:00,
2013-02-23 12:42:00,47.7,29.0,30.07,NNE,24,2.0,9.0,48,0.00,,SCT110,0.00,VWS V14.01,2013-02-23 18:42:00,
2013-02-23 12:47:00,47.3,29.1,30.06,NE,36,2.0,5.0,49,0.00,,SCT110,0.00,VWS V14.01,2013-02-23 18:47:00,
2013-02-23 12:52:00,47.6,29.4,30.06,NNW,340,2.0,5.0,49,0.00,,SCT110,0.00,VWS V14.01,2013-02-23 18:52:00,
2013-02-23 12:57:00,47.9,29.2,30.06,NNE,24,4.0,7.0,48,0.00,,SCT110,0.00,VWS V14.01,2013-02-23 18:57:00,
2013-02-23 13:02:00,47.9,28.7,30.05,NE,46,2.0,3.0,47,0.00,,FEW100,0.00,VWS V14.01,2013-02-23 19:02:00,
2013-02-23 13:07:00,48.2,28.9,30.05,North,11,2.0,3.0,47,0.00,,FEW100,0.00,VWS V14.01,2013-02-23 19:07:00,
2013-02-23 13:12:00,48.8,29.5,30.03,West,277,1.0,3.0,47,0.00,,FEW100,0.00,VWS V14.01,2013-02-23 19:12:00,
2013-02-23 13:17:00,49.3,28.9,30.03,WNW,286,3.0,3.0,45,0.00,,FEW100,0.00,VWS V14.01,2013-02-23 19:17:00,
2013-02-23 13:22:00,50.0,30.0,30.03,NNE,17,1.0,3.0,46,0.00,,FEW100,0.00,VWS V14.01,2013-02-23 19:22:00,
2013-02-23 13:27:00,49.8,29.3,30.02,NNE,18,1.0,5.0,45,0.00,,FEW100,0.00,VWS V14.01,2013-02-23 19:27:00,
2013-02-23 13:32:00,49.9,28.3,30.02,NE,49,4.0,7.0,43,0.00,,FEW100,0.00,VWS V14.01,2013-02-23 19:32:00,
2013-02-23 13:37:00,49.6,28.0,30.02,NNE,31,3.0,5.0,43,0.00,,FEW100,0.00,VWS V14.01,2013-02-23 19:37:00,
2013-02-23 13:42:00,50.1,28.5,30.01,NNW,327,2.0,3.0,43,0.00,,FEW100,0.00,VWS V14.01,2013-02-23 19:42:00,
2013-02-23 13:47:00,49.8,28.2,30.01,NE,43,0.0,1.0,43,0.00,,FEW100,0.00,VWS V14.01,2013-02-23 19:47:00,
2013-02-23 13:52:00,50.1,29.6,30.00,NNE,32,4.0,5.0,45,0.00,,FEW100,0.00,VWS V14.01,2013-02-23 19:52:00,
2013-02-23 13:57:00,50.3,29.2,30.01,NE,34,3.0,6.0,44,0.00,,FEW100,0.00,VWS V14.01,2013-02-23 19:57:00,
2013-02-23 14:02:00,50.0,29.5,30.00,SSE,155,0.0,2.0,45,0.00,,CLR,0.00,VWS V14.01,2013-02-23 20:02:00,
2013-02-23 14:08:00,50.6,29.0,30.00,NNW,335,3.0,6.0,43,0.00,,CLR,0.00,VWS V14.01,2013-02-23 20:08:00,
2013-02-23 14:12:00,50.8,29.1,30.00,NE,54,4.0,5.0,43,0.00,,CLR,0.00,VWS V14.01,2013-02-23 20:12:00,
2013-02-23 14:17:00,51.3,30.1,30.00,NE,42,1.0,3.0,44,0.00,,CLR,0.00,VWS V14.01,2013-02-23 20:17:00,
2013-02-23 14:23:00,51.5,29.8,30.00,West,279,1.0,2.0,43,0.00,,CLR,0.00,VWS V14.01,2013-02-23 20:23:00,
2013-02-23 14:28:00,51.9,29.0,29.99,NNW,334,0.0,3.0,41,0.00,,CLR,0.00,VWS V14.01,2013-02-23 20:28:00,
2013-02-23 14:33:00,52.2,29.8,29.99,NE,50,4.0,4.0,42,0.00,,CLR,0.00,VWS V14.01,2013-02-23 20:33:00,
2013-02-23 14:38:00,52.2,29.8,29.99,NE,42,2.0,4.0,42,0.00,,CLR,0.00,VWS V14.01,2013-02-23 20:38:00,
2013-02-23 14:43:00,52.3,29.9,29.99,NNW,342,1.0,3.0,42,0.00,,CLR,0.00,VWS V14.01,2013-02-23 20:43:00,
2013-02-23 14:48:00,52.9,30.5,29.98,NNE,13,4.0,4.0,42,0.00,,CLR,0.00,VWS V14.01,2013-02-23 20:48:00,
2013-02-23 14:53:00,53.2,29.5,29.98,North,351,1.0,3.0,40,0.00,,CLR,0.00,VWS V14.01,2013-02-23 20:53:00,
2013-02-23 14:58:00,53.3,29.0,29.98,SSW,211,2.0,3.0,39,0.00,,CLR,0.00,VWS V14.01,2013-02-23 20:58:00,
2013-02-23 15:03:00,53.3,29.6,29.98,East,84,2.0,3.0,40,0.00,,CLR,0.00,VWS V14.01,2013-02-23 21:03:00,
2013-02-23 15:08:00,52.7,29.1,29.98,SSW,202,0.0,2.0,40,0.00,,CLR,0.00,VWS V14.01,2013-02-23 21:08:00,
2013-02-23 15:13:00,53.3,30.2,29.98,SW,231,0.0,1.0,41,0.00,,CLR,0.00,VWS V14.01,2013-02-23 21:13:00,
2013-02-23 15:18:00,53.6,29.3,29.98,NW,318,0.0,3.0,39,0.00,,CLR,0.00,VWS V14.01,2013-02-23 21:18:00,
2013-02-23 15:23:00,53.1,28.8,29.98,NNW,344,1.0,4.0,39,0.00,,CLR,0.00,VWS V14.01,2013-02-23 21:23:00,
2013-02-23 15:28:00,52.4,28.8,29.98,NE,46,1.0,2.0,40,0.00,,CLR,0.00,VWS V14.01,2013-02-23 21:28:00,
2013-02-23 15:33:00,52.2,29.2,29.98,NNE,23,1.0,4.0,41,0.00,,CLR,0.00,VWS V14.01,2013-02-23 21:33:00,
2013-02-23 15:38:00,52.7,29.1,29.98,WSW,242,0.0,0.0,40,0.00,,CLR,0.00,VWS V14.01,2013-02-23 21:38:00,
2013-02-23 15:43:00,54.1,30.3,29.98,SSW,197,0.0,2.0,40,0.00,,CLR,0.00,VWS V14.01,2013-02-23 21:43:00,
2013-02-23 15:48:00,54.7,29.6,29.98,SW,229,1.0,2.0,38,0.00,,CLR,0.00,VWS V14.01,2013-02-23 21:48:00,
2013-02-23 15:53:00,54.9,29.8,29.98,SSE,165,2.0,2.0,38,0.00,,CLR,0.00,VWS V14.01,2013-02-23 21:53:00,
2013-02-23 15:58:00,54.8,29.7,29.97,NE,40,0.0,3.0,38,0.00,,CLR,0.00,VWS V14.01,2013-02-23 21:58:00,
2013-02-23 16:03:00,55.0,29.9,29.97,SSW,199,2.0,3.0,38,0.00,,CLR,0.00,VWS V14.01,2013-02-23 22:03:00,
2013-02-23 16:08:00,54.8,29.7,29.97,WSW,238,0.0,3.0,38,0.00,,CLR,0.00,VWS V14.01,2013-02-23 22:08:00,
2013-02-23 16:13:00,54.8,31.6,29.97,SE,137,0.0,1.0,41,0.00,,CLR,0.00,VWS V14.01,2013-02-23 22:13:00,
2013-02-23 16:18:00,55.1,31.2,29.97,SW,234,0.0,2.0,40,0.00,,CLR,0.00,VWS V14.01,2013-02-23 22:18:00,
2013-02-23 16:23:00,55.3,30.8,29.97,SSW,202,0.0,1.0,39,0.00,,CLR,0.00,VWS V14.01,2013-02-23 22:23:00,
2013-02-23 16:28:00,55.4,29.6,29.97,North,360,0.0,3.0,37,0.00,,CLR,0.00,VWS V14.01,2013-02-23 22:28:00,
2013-02-23 16:33:00,55.3,30.8,29.97,SSW,200,0.0,1.0,39,0.00,,CLR,0.00,VWS V14.01,2013-02-23 22:33:00,
2013-02-23 16:38:00,55.5,30.3,29.96,NE,38,4.0,4.0,38,0.00,,CLR,0.00,VWS V14.01,2013-02-23 22:38:00,
2013-02-23 16:43:00,54.9,30.4,29.97,SW,226,2.0,2.0,39,0.00,,CLR,0.00,VWS V14.01,2013-02-23 22:43:00,
2013-02-23 16:48:00,55.2,30.7,29.96,SW,218,0.0,1.0,39,0.00,,CLR,0.00,VWS V14.01,2013-02-23 22:48:00,
2013-02-23 16:53:00,55.5,30.3,29.96,SSE,165,0.0,1.0,38,0.00,,CLR,0.00,VWS V14.01,2013-02-23 22:53:00,
2013-02-23 16:58:00,55.0,29.9,29.96,North,355,1.0,3.0,38,0.00,,CLR,0.00,VWS V14.01,2013-02-23 22:58:00,
2013-02-23 17:03:00,54.5,30.7,29.95,West,277,0.0,1.0,40,0.00,,CLR,0.00,VWS V14.01,2013-02-23 23:03:00,
2013-02-23 17:08:00,54.2,29.8,29.95,NNW,327,0.0,1.0,39,0.00,,CLR,0.00,VWS V14.01,2013-02-23 23:08:00,
2013-02-23 17:13:00,53.6,29.9,29.95,NW,325,0.0,0.0,40,0.00,,CLR,0.00,VWS V14.01,2013-02-23 23:13:00,
2013-02-23 17:18:00,53.0,30.0,29.95,NNW,334,2.0,3.0,41,0.00,,CLR,0.00,VWS V14.01,2013-02-23 23:18:00,
2013-02-23 17:23:00,52.6,29.6,29.95,NNW,346,1.0,2.0,41,0.00,,CLR,0.00,VWS V14.01,2013-02-23 23:23:00,
2013-02-23 17:28:00,52.2,29.8,29.94,NE,47,2.0,5.0,42,0.00,,CLR,0.00,VWS V14.01,2013-02-23 23:28:00,
2013-02-23 17:33:00,51.8,30.0,29.95,NE,44,3.0,3.0,43,0.00,,CLR,0.00,VWS V14.01,2013-02-23 23:33:00,
2013-02-23 17:38:00,51.6,29.9,29.95,NE,45,2.0,3.0,43,0.00,,CLR,0.00,VWS V14.01,2013-02-23 23:38:00,
2013-02-23 17:43:00,51.4,29.7,29.95,ENE,65,1.0,3.0,43,0.00,,CLR,0.00,VWS V14.01,2013-02-23 23:43:00,
2013-02-23 17:48:00,51.1,30.0,29.95,NE,47,1.0,1.0,44,0.00,,CLR,0.00,VWS V14.01,2013-02-23 23:48:00,
2013-02-23 17:53:00,51.0,29.9,29.95,NE,47,0.0,3.0,44,0.00,,CLR,0.00,VWS V14.01,2013-02-23 23:53:00,
2013-02-23 17:58:00,50.7,30.1,29.95,NE,49,0.0,0.0,45,0.00,,CLR,0.00,VWS V14.01,2013-02-23 23:58:00,
2013-02-23 18:03:00,50.6,29.5,29.95,NE,44,1.0,3.0,44,0.00,,CLR,0.00,VWS V14.01,2013-02-24 00:03:00,
2013-02-23 18:08:00,50.4,29.9,29.95,NE,38,1.0,2.0,45,0.00,,CLR,0.00,VWS V14.01,2013-02-24 00:08:00,
2013-02-23 18:13:00,50.2,29.7,29.95,NNE,27,0.0,0.0,45,0.00,,CLR,0.00,VWS V14.01,2013-02-24 00:13:00,
2013-02-23 18:18:00,49.9,30.0,29.95,NNE,28,0.0,0.0,46,0.00,,CLR,0.00,VWS V14.01,2013-02-24 00:18:00,
2013-02-23 18:23:00,49.2,29.9,29.95,NNE,28,0.0,0.0,47,0.00,,CLR,0.00,VWS V14.01,2013-02-24 00:23:00,
2013-02-23 18:28:00,48.6,29.8,29.96,NNE,28,0.0,0.0,48,0.00,,CLR,0.00,VWS V14.01,2013-02-24 00:28:00,
2013-02-23 18:33:00,47.8,30.1,29.96,NNE,28,0.0,0.0,50,0.00,,CLR,0.00,VWS V14.01,2013-02-24 00:33:00,
2013-02-23 18:38:00,47.1,29.9,29.96,NNE,28,0.0,0.0,51,0.00,,CLR,0.00,VWS V14.01,2013-02-24 00:38:00,
2013-02-23 18:43:00,46.2,29.6,29.96,NNE,28,0.0,0.0,52,0.00,,CLR,0.00,VWS V14.01,2013-02-24 00:43:00,
2013-02-23 18:48:00,45.4,30.2,29.96,NNE,28,0.0,0.0,55,0.00,,CLR,0.00,VWS V14.01,2013-02-24 00:48:00,
2013-02-23 18:53:00,44.9,30.2,29.96,NNE,28,0.0,0.0,56,0.00,,CLR,0.00,VWS V14.01,2013-02-24 00:53:00,
2013-02-23 18:58:00,44.6,29.9,29.97,NNE,28,0.0,0.0,56,0.00,,CLR,0.00,VWS V14.01,2013-02-24 00:58:00,
2013-02-23 19:03:00,44.6,29.9,29.97,NNE,28,0.0,0.0,56,0.00,,CLR,0.00,VWS V14.01,2013-02-24 01:03:00,
2013-02-23 19:08:00,43.7,30.3,29.97,NNE,28,0.0,0.0,59,0.00,,CLR,0.00,VWS V14.01,2013-02-24 01:08:00,
2013-02-23 19:13:00,43.3,30.4,29.97,NNE,28,0.0,0.0,60,0.00,,CLR,0.00,VWS V14.01,2013-02-24 01:13:00,
2013-02-23 19:18:00,42.7,30.2,29.97,NNE,28,0.0,0.0,61,0.00,,CLR,0.00,VWS V14.01,2013-02-24 01:18:00,
2013-02-23 19:23:00,42.2,30.1,29.97,NNE,28,0.0,0.0,62,0.00,,CLR,0.00,VWS V14.01,2013-02-24 01:23:00,
2013-02-23 19:28:00,41.8,30.1,29.97,NNE,28,0.0,0.0,63,0.00,,CLR,0.00,VWS V14.01,2013-02-24 01:28:00,
2013-02-23 19:33:00,41.3,30.1,29.97,NNE,28,0.0,0.0,64,0.00,,CLR,0.00,VWS V14.01,2013-02-24 01:33:00,
2013-02-23 19:38:00,40.9,30.1,29.97,NNE,28,0.0,0.0,65,0.00,,CLR,0.00,VWS V14.01,2013-02-24 01:38:00,
2013-02-23 19:43:00,40.4,30.3,29.97,NNE,28,0.0,0.0,67,0.00,,CLR,0.00,VWS V14.01,2013-02-24 01:43:00,
2013-02-23 19:48:00,40.3,30.2,29.97,NNE,28,0.0,0.0,67,0.00,,CLR,0.00,VWS V14.01,2013-02-24 01:48:00,
2013-02-23 19:53:00,40.1,30.0,29.97,NNE,28,0.0,0.0,67,0.00,,CLR,0.00,VWS V14.01,2013-02-24 01:53:00,
2013-02-23 19:58:00,39.8,30.5,29.97,NNE,28,0.0,0.0,69,0.00,,CLR,0.00,VWS V14.01,2013-02-24 01:58:00,
2013-02-23 20:03:00,39.8,30.5,29.97,NNE,28,0.0,0.0,69,0.00,,CLR,0.00,VWS V14.01,2013-02-24 02:03:00,
2013-02-23 20:08:00,40.3,31.3,29.97,NNE,28,0.0,0.0,70,0.00,,CLR,0.00,VWS V14.01,2013-02-24 02:08:00,
2013-02-23 20:13:00,40.4,31.0,29.97,NNE,28,0.0,0.0,69,0.00,,CLR,0.00,VWS V14.01,2013-02-24 02:13:00,
2013-02-23 20:18:00,40.0,30.7,29.97,NNE,28,0.0,0.0,69,0.00,,CLR,0.00,VWS V14.01,2013-02-24 02:18:00,
2013-02-23 20:23:00,39.5,30.5,29.97,NNE,28,0.0,0.0,70,0.00,,CLR,0.00,VWS V14.01,2013-02-24 02:23:00,
2013-02-23 20:28:00,39.2,30.2,29.97,NNE,28,0.0,0.0,70,0.00,,CLR,0.00,VWS V14.01,2013-02-24 02:28:00,
2013-02-23 20:33:00,39.3,30.4,29.97,NNE,28,0.0,0.0,70,0.00,,CLR,0.00,VWS V14.01,2013-02-24 02:33:00,
2013-02-23 20:38:00,39.4,30.4,29.97,NNE,28,0.0,0.0,70,0.00,,CLR,0.00,VWS V14.01,2013-02-24 02:38:00,
2013-02-23 20:43:00,39.7,30.7,29.97,NNE,28,0.0,0.0,70,0.00,,CLR,0.00,VWS V14.01,2013-02-24 02:43:00,
2013-02-23 20:48:00,40.4,30.7,29.97,NNE,28,0.0,0.0,68,0.00,,CLR,0.00,VWS V14.01,2013-02-24 02:48:00,
2013-02-23 20:53:00,40.6,30.9,29.97,NNE,29,0.0,0.0,68,0.00,,CLR,0.00,VWS V14.01,2013-02-24 02:53:00,
2013-02-23 20:58:00,40.5,30.8,29.97,NNE,28,0.0,0.0,68,0.00,,CLR,0.00,VWS V14.01,2013-02-24 02:58:00,
2013-02-23 21:03:00,40.5,30.8,29.97,NNE,28,0.0,0.0,68,0.00,,CLR,0.00,VWS V14.01,2013-02-24 03:03:00,
2013-02-23 21:08:00,40.4,31.0,29.97,NNE,28,0.0,0.0,69,0.00,,CLR,0.00,VWS V14.01,2013-02-24 03:08:00,
2013-02-23 21:13:00,40.2,31.2,29.97,NNE,28,0.0,0.0,70,0.00,,CLR,0.00,VWS V14.01,2013-02-24 03:13:00,
2013-02-23 21:18:00,39.8,30.8,29.97,NNE,28,0.0,0.0,70,0.00,,CLR,0.00,VWS V14.01,2013-02-24 03:18:00,
2013-02-23 21:23:00,39.3,30.7,29.97,NNE,28,0.0,0.0,71,0.00,,CLR,0.00,VWS V14.01,2013-02-24 03:23:00,
2013-02-23 21:28:00,38.7,30.8,29.97,NNE,28,0.0,0.0,73,0.00,,CLR,0.00,VWS V14.01,2013-02-24 03:28:00,
2013-02-23 21:34:00,38.5,30.6,29.96,NNE,28,0.0,0.0,73,0.00,,CLR,0.00,VWS V14.01,2013-02-24 03:34:00,
2013-02-23 21:39:00,38.4,30.5,29.96,NNE,28,0.0,0.0,73,0.00,,CLR,0.00,VWS V14.01,2013-02-24 03:39:00,
2013-02-23 21:44:00,38.8,30.9,29.95,NNE,28,0.0,0.0,73,0.00,,CLR,0.00,VWS V14.01,2013-02-24 03:44:00,
2013-02-23 21:49:00,39.3,30.7,29.95,NNE,28,0.0,0.0,71,0.00,,CLR,0.00,VWS V14.01,2013-02-24 03:49:00,
2013-02-23 21:54:00,39.9,30.9,29.95,ENE,58,0.0,0.0,70,0.00,,CLR,0.00,VWS V14.01,2013-02-24 03:54:00,
2013-02-23 21:59:00,39.9,30.9,29.95,ENE,58,0.0,0.0,70,0.00,,CLR,0.00,VWS V14.01,2013-02-24 03:59:00,
2013-02-23 22:04:00,39.9,30.9,29.95,ENE,58,0.0,0.0,70,0.00,,CLR,0.00,VWS V14.01,2013-02-24 04:04:00,
2013-02-23 22:09:00,39.7,30.4,29.95,ENE,58,0.0,0.0,69,0.00,,CLR,0.00,VWS V14.01,2013-02-24 04:09:00,
2013-02-23 22:14:00,39.5,30.5,29.95,ENE,58,0.0,0.0,70,0.00,,CLR,0.00,VWS V14.01,2013-02-24 04:14:00,
2013-02-23 22:19:00,39.7,31.1,29.95,NE,53,0.0,0.0,71,0.00,,CLR,0.00,VWS V14.01,2013-02-24 04:19:00,
2013-02-23 22:24:00,40.1,31.5,29.95,NNE,27,0.0,0.0,71,0.00,,CLR,0.00,VWS V14.01,2013-02-24 04:24:00,
2013-02-23 22:29:00,40.1,31.1,29.96,NNE,27,0.0,0.0,70,0.00,,CLR,0.00,VWS V14.01,2013-02-24 04:29:00,
2013-02-23 22:34:00,39.6,30.6,29.96,NNE,27,0.0,0.0,70,0.00,,CLR,0.00,VWS V14.01,2013-02-24 04:34:00,
2013-02-23 22:39:00,38.9,30.7,29.96,NNE,27,0.0,0.0,72,0.00,,CLR,0.00,VWS V14.01,2013-02-24 04:39:00,
2013-02-23 22:44:00,38.6,30.4,29.96,NNE,27,0.0,0.0,72,0.00,,CLR,0.00,VWS V14.01,2013-02-24 04:44:00,
2013-02-23 22:49:00,38.1,30.2,29.95,NNE,27,0.0,0.0,73,0.00,,CLR,0.00,VWS V14.01,2013-02-24 04:49:00,
2013-02-23 22:54:00,37.7,30.5,29.95,NNE,27,0.0,0.0,75,0.00,,CLR,0.00,VWS V14.01,2013-02-24 04:54:00,
2013-02-23 22:59:00,37.5,30.3,29.95,NNE,27,0.0,0.0,75,0.00,,CLR,0.00,VWS V14.01,2013-02-24 04:59:00,
2013-02-23 23:00:00,37.5,30.3,29.95,NNE,27,0.0,0.0,75,0.00,,CLR,0.00,VWS V14.01,2013-02-24 05:00:00,
2013-02-23 23:05:00,37.2,30.4,29.94,NNE,27,0.0,0.0,76,0.00,,CLR,0.00,VWS V14.01,2013-02-24 05:05:00,
2013-02-23 23:10:00,37.4,30.9,29.94,NW,321,0.0,1.0,77,0.00,,CLR,0.00,VWS V14.01,2013-02-24 05:10:00,
2013-02-23 23:15:00,37.2,30.4,29.94,NW,322,0.0,0.0,76,0.00,,CLR,0.00,VWS V14.01,2013-02-24 05:15:00,
2013-02-23 23:20:00,36.8,30.3,29.95,NW,322,0.0,0.0,77,0.00,,CLR,0.00,VWS V14.01,2013-02-24 05:20:00,
2013-02-23 23:25:00,36.6,30.1,29.94,NW,321,0.0,0.0,77,0.00,,CLR,0.00,VWS V14.01,2013-02-24 05:25:00,
2013-02-23 23:30:00,36.1,29.9,29.94,NW,322,0.0,0.0,78,0.00,,CLR,0.00,VWS V14.01,2013-02-24 05:30:00,
2013-02-23 23:35:00,36.0,30.1,29.94,NW,322,0.0,0.0,79,0.00,,CLR,0.00,VWS V14.01,2013-02-24 05:35:00,
2013-02-23 23:40:00,35.9,30.0,29.94,NW,322,0.0,0.0,79,0.00,,CLR,0.00,VWS V14.01,2013-02-24 05:40:00,
2013-02-23 23:45:00,35.9,30.0,29.94,NW,321,0.0,0.0,79,0.00,,CLR,0.00,VWS V14.01,2013-02-24 05:45:00,
2013-02-23 23:50:00,35.8,29.9,29.94,NW,322,0.0,0.0,79,0.00,,CLR,0.00,VWS V14.01,2013-02-24 05:50:00,
2013-02-23 23:55:00,35.3,29.5,29.94,NW,322,0.0,0.0,79,0.00,,CLR,0.00,VWS V14.01,2013-02-24 05:55:00,